Time;durP1;ratioP1;P1;durP2;ratioP2;P2;SDS_P1;SDS_P2;PMS_P1;PMS_P2;Temp;Humidity;BMP_temperature;BMP_pressure;BME280_temperature;BME280_humidity;BME280_pressure;Samples;Min_cycle;Max_cycle;Signal;HPM_P1;HPM_P2
2024/04/19 00:02:11;;;;;;;4.95;2.60;;;12.80;99.90;;;;;;5382429;26;20000;-54
2024/04/19 00:04:37;;;;;;;3.55;2.00;;;12.80;99.90;;;;;;5389615;26;20024;-55
2024/04/19 00:07:03;;;;;;;5.03;2.45;;;12.80;99.90;;;;;;5407291;26;20014;-56
2024/04/19 00:09:28;;;;;;;2.20;2.00;;;12.80;99.90;;;;;;5417098;26;20000;-56
2024/04/19 00:11:54;;;;;;;2.13;1.92;;;12.70;99.90;;;;;;5390491;26;20304;-56
2024/04/19 00:14:20;;;;;;;6.65;3.00;;;12.70;99.90;;;;;;5397337;26;20069;-53
2024/04/19 00:16:45;;;;;;;4.32;2.28;;;12.70;99.90;;;;;;5417509;26;20325;-56
2024/04/19 00:19:11;;;;;;;3.90;2.17;;;12.70;99.90;;;;;;5409281;26;20092;-57
2024/04/19 00:21:36;;;;;;;3.72;2.40;;;12.80;99.90;;;;;;5415186;26;20011;-55
2024/04/19 00:24:02;;;;;;;2.88;2.40;;;12.70;99.90;;;;;;5415434;26;20000;-55
2024/04/19 00:26:27;;;;;;;5.25;2.20;;;12.60;99.90;;;;;;5413064;26;20368;-55
2024/04/19 00:28:53;;;;;;;6.03;2.70;;;12.70;99.90;;;;;;5395921;26;20464;-56
2024/04/19 00:31:19;;;;;;;3.17;2.40;;;12.60;99.90;;;;;;5404671;26;20000;-53
2024/04/19 00:33:45;;;;;;;3.80;2.33;;;12.50;99.90;;;;;;5395349;26;20019;-53
2024/04/19 00:36:10;;;;;;;5.80;2.60;;;12.60;99.90;;;;;;5415854;26;20027;-56
2024/04/19 00:38:36;;;;;;;6.80;3.38;;;12.60;99.90;;;;;;5425244;26;20390;-56
2024/04/19 00:41:02;;;;;;;3.75;2.85;;;12.50;99.90;;;;;;5417716;26;20007;-55
2024/04/19 00:43:28;;;;;;;4.13;3.42;;;12.50;99.90;;;;;;5403592;26;20428;-56
2024/04/19 00:45:53;;;;;;;5.25;3.55;;;12.50;99.90;;;;;;5403041;26;20000;-57
2024/04/19 00:48:26;;;;;;;3.95;3.42;;;12.50;99.90;;;;;;5392101;26;20000;-56
2024/04/19 00:50:57;;;;;;;4.55;3.20;;;12.50;99.90;;;;;;5386016;26;20004;-56
2024/04/19 00:53:26;;;;;;;4.57;3.80;;;12.50;99.90;;;;;;5394749;26;20463;-52
2024/04/19 00:55:59;;;;;;;5.43;3.65;;;12.50;99.90;;;;;;5393556;26;19995;-56
2024/04/19 00:58:26;;;;;;;8.98;2.90;;;12.40;99.90;;;;;;5409323;26;20011;-53
2024/04/19 01:00:52;;;;;;;6.13;3.38;;;12.20;99.90;;;;;;5411892;26;20394;-56
2024/04/19 01:03:17;;;;;;;6.95;3.50;;;12.30;99.90;;;;;;5386270;26;20015;-55
2024/04/19 01:05:43;;;;;;;6.82;3.47;;;12.20;99.90;;;;;;5409142;26;20011;-57
2024/04/19 01:08:09;;;;;;;4.75;3.10;;;12.30;99.90;;;;;;5415213;26;19999;-53
2024/04/19 01:10:36;;;;;;;4.88;2.97;;;12.30;99.90;;;;;;5413752;26;20441;-56
2024/04/19 01:13:02;;;;;;;4.95;3.50;;;12.30;99.90;;;;;;5415454;26;20019;-56
2024/04/19 01:15:28;;;;;;;4.68;2.67;;;12.20;99.90;;;;;;5414879;26;19991;-55
2024/04/19 01:17:53;;;;;;;4.22;3.08;;;12.20;99.90;;;;;;5406821;26;19992;-54
2024/04/19 01:20:19;;;;;;;4.20;3.00;;;12.20;99.90;;;;;;5411090;26;20014;-52
2024/04/19 01:22:47;;;;;;;5.53;2.83;;;12.10;99.90;;;;;;5414389;26;20032;-56
2024/04/19 01:25:19;;;;;;;5.57;2.72;;;12.20;99.90;;;;;;5406508;26;19995;-56
2024/04/19 01:27:45;;;;;;;3.50;3.20;;;12.20;99.90;;;;;;5412669;26;20403;-52
2024/04/19 01:30:10;;;;;;;3.80;3.45;;;12.20;99.90;;;;;;5409755;26;20015;-57
2024/04/19 01:32:36;;;;;;;6.68;3.40;;;12.20;99.90;;;;;;5413463;26;20326;-57
2024/04/19 01:35:01;;;;;;;4.20;3.13;;;12.10;99.90;;;;;;5390087;26;20000;-57
2024/04/19 01:37:27;;;;;;;5.63;2.78;;;12.20;99.90;;;;;;5414693;26;20042;-55
2024/04/19 01:39:52;;;;;;;4.05;2.80;;;12.20;99.90;;;;;;5412648;26;20020;-56
2024/04/19 01:42:18;;;;;;;3.60;2.90;;;12.10;99.90;;;;;;5402309;26;20014;-56
2024/04/19 01:44:43;;;;;;;3.50;3.20;;;12.00;99.90;;;;;;5395992;26;20077;-56
2024/04/19 01:47:09;;;;;;;4.50;2.65;;;12.00;99.90;;;;;;5387231;26;20072;-55
2024/04/19 01:49:35;;;;;;;9.77;3.35;;;11.90;99.90;;;;;;5414176;26;19999;-57
2024/04/19 01:52:01;;;;;;;3.97;2.95;;;11.90;99.90;;;;;;5413982;26;19996;-55
2024/04/19 01:54:35;;;;;;;3.70;3.17;;;11.90;99.90;;;;;;5398305;26;20072;-56
2024/04/19 01:57:02;;;;;;;5.78;3.60;;;12.00;99.90;;;;;;5403984;26;20507;-55
2024/04/19 01:59:28;;;;;;;3.97;3.10;;;12.00;99.90;;;;;;5412953;26;20394;-56
2024/04/19 02:01:57;;;;;;;5.97;4.07;;;12.00;99.90;;;;;;5414113;26;20003;-52
2024/04/19 02:04:23;;;;;;;5.70;3.70;;;11.90;99.90;;;;;;5404569;26;20015;-59
2024/04/19 02:06:48;;;;;;;5.40;3.58;;;11.90;99.90;;;;;;5414433;26;19996;-55
2024/04/19 02:09:14;;;;;;;4.35;3.72;;;11.80;99.90;;;;;;5412675;26;20039;-54
2024/04/19 02:11:39;;;;;;;4.70;3.30;;;11.70;99.90;;;;;;5412271;26;20018;-55
2024/04/19 02:14:05;;;;;;;5.95;3.80;;;11.70;99.90;;;;;;5393890;26;20015;-55
2024/04/19 02:16:30;;;;;;;17.83;7.80;;;11.70;99.90;;;;;;5415548;26;20000;-57
2024/04/19 02:18:56;;;;;;;8.15;5.05;;;11.70;99.90;;;;;;5386861;26;20008;-57
2024/04/19 02:21:27;;;;;;;6.35;4.22;;;11.80;99.90;;;;;;5382363;26;20008;-52
2024/04/19 02:23:53;;;;;;;6.70;4.63;;;11.60;99.90;;;;;;5407720;26;20032;-56
2024/04/19 02:26:19;;;;;;;6.05;3.47;;;11.60;99.90;;;;;;5415971;26;20007;-57
2024/04/19 02:31:29;;;;;;;5.85;3.63;;;11.60;99.90;;;;;;5411982;26;20019;-55
2024/04/19 02:33:54;;;;;;;5.50;3.88;;;11.60;99.90;;;;;;5410414;26;20011;-55
2024/04/19 02:36:20;;;;;;;6.38;3.95;;;11.50;99.90;;;;;;5408505;26;20011;-55
2024/04/19 02:38:45;;;;;;;5.68;3.80;;;11.40;99.90;;;;;;5414259;26;20047;-52
2024/04/19 02:41:11;;;;;;;9.35;3.80;;;11.30;99.90;;;;;;5411557;26;20274;-56
2024/04/19 02:43:37;;;;;;;7.63;3.97;;;11.40;99.90;;;;;;5399091;26;20004;-55
2024/04/19 02:46:03;;;;;;;8.55;4.28;;;11.30;99.90;;;;;;5380863;26;20004;-56
2024/04/19 02:48:29;;;;;;;6.18;4.40;;;11.40;99.90;;;;;;5409377;26;19996;-57
2024/04/19 02:50:55;;;;;;;8.00;4.35;;;11.30;99.90;;;;;;5415034;26;20013;-55
2024/04/19 02:53:20;;;;;;;5.70;4.20;;;11.30;99.90;;;;;;5397079;26;20012;-54
2024/04/19 02:55:46;;;;;;;4.78;3.95;;;11.30;99.90;;;;;;5379846;26;20004;-56
2024/04/19 02:58:11;;;;;;;4.75;4.05;;;11.30;99.90;;;;;;5383871;26;20456;-57
2024/04/19 03:00:37;;;;;;;4.70;4.25;;;11.30;99.90;;;;;;5412338;26;20014;-54
2024/04/19 03:03:02;;;;;;;5.97;3.67;;;11.10;99.90;;;;;;5405552;26;19999;-56
2024/04/19 03:05:28;;;;;;;4.30;3.25;;;11.00;99.90;;;;;;5413723;26;20407;-54
2024/04/19 03:07:54;;;;;;;5.82;3.60;;;11.10;99.90;;;;;;5410467;26;20406;-57
2024/04/19 03:10:19;;;;;;;4.75;3.00;;;10.90;99.90;;;;;;5411991;26;20011;-56
2024/04/19 03:12:45;;;;;;;3.67;3.30;;;11.10;99.90;;;;;;5402945;26;20000;-56
2024/04/19 03:15:10;;;;;;;5.80;3.35;;;11.00;99.90;;;;;;5382449;26;20003;-56
2024/04/19 03:17:36;;;;;;;3.25;2.78;;;11.10;99.90;;;;;;5380088;26;20020;-55
2024/04/19 03:20:02;;;;;;;3.13;2.77;;;10.90;99.90;;;;;;5405271;26;20012;-56
2024/04/19 03:22:27;;;;;;;3.50;3.20;;;11.00;99.90;;;;;;5398206;26;20018;-57
2024/04/19 03:24:53;;;;;;;2.78;2.45;;;10.80;99.90;;;;;;5412960;26;19999;-56
2024/04/19 03:27:24;;;;;;;3.00;2.38;;;10.80;99.90;;;;;;5397772;26;20004;-55
2024/04/19 03:29:54;;;;;;;1.87;1.70;;;10.80;99.90;;;;;;5409824;26;20004;-55
2024/04/19 03:32:19;;;;;;;2.10;1.90;;;10.70;99.90;;;;;;5406093;26;20118;-56
2024/04/19 03:34:45;;;;;;;4.00;1.98;;;10.80;99.90;;;;;;5377483;26;20085;-56
2024/04/19 03:37:10;;;;;;;2.47;1.95;;;10.60;99.90;;;;;;5398972;26;20015;-56
2024/04/19 03:39:36;;;;;;;2.28;1.77;;;10.70;99.90;;;;;;5432602;26;19995;-57
2024/04/19 03:42:02;;;;;;;2.30;1.73;;;10.80;99.90;;;;;;5392665;26;20442;-57
2024/04/19 03:47:12;;;;;;;2.08;1.83;;;10.60;99.90;;;;;;5388491;26;20100;-56
2024/04/19 03:49:38;;;;;;;2.15;1.50;;;10.60;99.90;;;;;;5411792;26;20489;-56
2024/04/19 03:52:03;;;;;;;3.47;1.70;;;10.70;99.90;;;;;;5384794;26;20000;-59
2024/04/19 03:54:29;;;;;;;1.52;1.42;;;10.60;99.90;;;;;;5378914;26;20319;-57
2024/04/19 03:56:54;;;;;;;3.05;1.70;;;10.60;99.90;;;;;;5378911;26;20011;-54
2024/04/19 03:59:20;;;;;;;2.42;1.83;;;10.70;99.90;;;;;;5397231;26;20015;-54
2024/04/19 04:01:49;;;;;;;3.75;1.77;;;10.70;99.90;;;;;;5413200;26;20333;-55
2024/04/19 04:04:14;;;;;;;1.50;1.40;;;10.70;99.90;;;;;;5414094;26;20084;-53
2024/04/19 04:06:40;;;;;;;1.58;1.48;;;10.70;99.90;;;;;;5380818;26;20077;-51
2024/04/19 04:09:06;;;;;;;2.87;1.63;;;10.60;99.90;;;;;;5376762;26;20000;-56
2024/04/19 04:11:31;;;;;;;2.38;1.40;;;10.60;99.90;;;;;;5378351;26;20004;-57
2024/04/19 04:13:57;;;;;;;1.13;1.02;;;10.60;99.90;;;;;;5404380;26;20054;-57
2024/04/19 04:16:23;;;;;;;1.73;1.52;;;10.60;99.90;;;;;;5395197;26;20004;-57
2024/04/19 04:18:48;;;;;;;2.53;1.60;;;10.60;99.90;;;;;;5370586;26;20008;-55
2024/04/19 04:21:14;;;;;;;2.08;1.70;;;10.60;99.90;;;;;;5379932;26;20008;-53
2024/04/19 04:23:39;;;;;;;3.23;1.50;;;10.70;99.90;;;;;;5386356;26;20007;-56
2024/04/19 04:26:05;;;;;;;2.53;1.43;;;10.50;99.90;;;;;;5415379;26;20456;-57
2024/04/19 04:28:30;;;;;;;1.47;1.37;;;10.60;99.90;;;;;;5383904;26;20015;-56
2024/04/19 04:30:56;;;;;;;2.23;1.43;;;10.50;99.90;;;;;;5411512;26;20015;-57
2024/04/19 04:33:22;;;;;;;2.43;1.60;;;10.40;99.90;;;;;;5388572;26;20004;-55
2024/04/19 04:35:47;;;;;;;2.65;1.45;;;10.40;99.90;;;;;;5415508;26;20014;-57
2024/04/19 04:38:38;;;;;;;1.10;1.00;;;10.50;99.90;;;;;;5409977;26;20014;-56
2024/04/19 04:41:03;;;;;;;2.35;1.60;;;10.50;99.90;;;;;;5384016;26;20337;-53
2024/04/19 04:43:29;;;;;;;2.33;1.52;;;10.40;99.90;;;;;;5394108;26;19999;-53
2024/04/19 04:45:55;;;;;;;3.60;1.50;;;10.50;99.90;;;;;;5409263;26;19999;-54
2024/04/19 04:48:21;;;;;;;3.00;1.97;;;10.50;99.90;;;;;;5407272;26;20004;-57
2024/04/19 04:50:46;;;;;;;4.50;2.30;;;10.50;99.90;;;;;;5416471;26;19992;-58
2024/04/19 04:53:12;;;;;;;4.40;2.33;;;10.40;99.90;;;;;;5416572;26;20011;-54
2024/04/19 04:55:37;;;;;;;7.00;2.40;;;10.50;99.90;;;;;;5416981;26;20003;-56
2024/04/19 04:58:05;;;;;;;5.38;3.05;;;10.40;99.90;;;;;;5416771;26;20014;-55
2024/04/19 05:00:30;;;;;;;2.85;2.58;;;10.40;99.90;;;;;;5416865;26;20015;-57
2024/04/19 05:02:58;;;;;;;4.90;2.78;;;10.40;99.90;;;;;;5416911;26;20027;-55
2024/04/19 05:05:26;;;;;;;6.33;3.07;;;10.40;99.90;;;;;;5416953;26;20103;-55
2024/04/19 05:07:52;;;;;;;4.32;3.00;;;10.30;99.90;;;;;;5414774;26;20003;-54
2024/04/19 05:10:20;;;;;;;6.20;3.37;;;10.30;99.90;;;;;;5417111;26;20006;-52
2024/04/19 05:12:46;;;;;;;5.53;3.80;;;10.30;99.90;;;;;;5416713;26;19995;-55
2024/04/19 05:15:11;;;;;;;7.93;3.93;;;10.40;99.90;;;;;;5409163;26;20016;-55
2024/04/19 05:17:37;;;;;;;4.67;3.00;;;10.30;99.90;;;;;;5381514;26;20377;-54
2024/04/19 05:20:03;;;;;;;5.67;3.57;;;10.30;99.90;;;;;;5381425;26;20007;-52
2024/04/19 05:22:28;;;;;;;7.50;4.20;;;10.20;99.90;;;;;;5382350;26;20004;-53
2024/04/19 05:24:54;;;;;;;4.57;3.40;;;10.30;99.90;;;;;;5389960;26;20027;-56
2024/04/19 05:27:20;;;;;;;5.13;3.30;;;10.20;99.90;;;;;;5416521;26;20008;-55
2024/04/19 05:29:45;;;;;;;6.80;3.47;;;10.30;99.90;;;;;;5416673;26;20433;-56
2024/04/19 05:32:11;;;;;;;14.77;4.28;;;10.30;99.90;;;;;;5415689;26;20003;-58
2024/04/19 05:34:36;;;;;;;9.33;4.30;;;10.30;99.90;;;;;;5415547;26;20010;-57
2024/04/19 05:37:02;;;;;;;10.30;3.77;;;10.30;99.90;;;;;;5416469;26;20007;-54
2024/04/19 05:39:28;;;;;;;6.10;4.30;;;10.30;99.90;;;;;;5401579;26;20011;-56
2024/04/19 05:41:53;;;;;;;11.07;4.40;;;10.20;99.90;;;;;;5414435;26;20010;-54
2024/04/19 05:44:19;;;;;;;25.13;6.50;;;10.40;99.90;;;;;;5416512;26;20014;-57
2024/04/19 05:46:48;;;;;;;13.03;5.20;;;10.40;99.90;;;;;;5416545;26;20344;-56
2024/04/19 05:49:14;;;;;;;6.63;4.83;;;10.40;99.90;;;;;;5416630;26;20003;-54
2024/04/19 05:51:40;;;;;;;7.67;4.67;;;10.40;99.90;;;;;;5395000;26;20015;-53
2024/04/19 05:54:05;;;;;;;11.40;4.70;;;10.30;99.90;;;;;;5416514;26;20043;-56
2024/04/19 05:56:31;;;;;;;8.77;4.33;;;10.30;99.90;;;;;;5416266;26;20004;-57
2024/04/19 05:58:57;;;;;;;6.03;4.37;;;10.30;99.90;;;;;;5416340;26;19995;-54
2024/04/19 06:01:24;;;;;;;9.83;4.97;;;10.40;99.90;;;;;;5415449;26;20076;-56
2024/04/19 06:03:50;;;;;;;7.00;3.80;;;10.40;99.90;;;;;;5413626;26;20043;-55
2024/04/19 06:06:15;;;;;;;6.80;4.40;;;10.50;99.90;;;;;;5415904;26;20032;-57
2024/04/19 06:08:41;;;;;;;5.63;4.18;;;10.40;99.90;;;;;;5414444;26;20003;-56
2024/04/19 06:11:07;;;;;;;4.95;4.28;;;10.40;99.90;;;;;;5415259;26;20000;-55
2024/04/19 06:13:33;;;;;;;9.68;3.92;;;10.40;99.90;;;;;;5415582;26;20004;-53
2024/04/19 06:15:59;;;;;;;8.37;3.80;;;10.30;99.90;;;;;;5415822;26;20077;-56
2024/04/19 06:18:24;;;;;;;6.20;3.90;;;10.60;99.90;;;;;;5409358;26;20032;-53
2024/04/19 06:20:50;;;;;;;6.47;3.20;;;10.60;99.90;;;;;;5412675;26;20003;-56
2024/04/19 06:23:15;;;;;;;10.37;4.00;;;10.40;99.90;;;;;;5413064;26;20075;-56
2024/04/19 06:25:44;;;;;;;7.37;3.90;;;10.50;99.90;;;;;;5410871;26;20291;-54
2024/04/19 06:28:10;;;;;;;6.17;3.80;;;10.60;99.90;;;;;;5412955;26;20119;-54
2024/04/19 06:30:36;;;;;;;6.15;3.50;;;10.60;99.90;;;;;;5413248;26;19999;-56
2024/04/19 06:33:01;;;;;;;5.13;3.37;;;10.60;99.90;;;;;;5413177;26;20071;-56
2024/04/19 06:35:27;;;;;;;4.80;3.22;;;10.60;99.90;;;;;;5412786;26;20003;-56
2024/04/19 06:37:52;;;;;;;4.45;3.22;;;10.80;99.90;;;;;;5392984;26;20005;-55
2024/04/19 06:40:18;;;;;;;8.05;2.97;;;10.80;99.90;;;;;;5408466;26;20063;-56
2024/04/19 06:42:43;;;;;;;7.63;2.80;;;10.90;99.90;;;;;;5412249;26;20004;-54
2024/04/19 06:48:37;;;;;;;5.55;3.40;;;10.90;99.90;;;;;;5393238;26;20139;-60
2024/04/19 06:51:03;;;;;;;4.53;2.67;;;11.10;99.90;;;;;;5389243;26;20476;-60
2024/04/19 06:53:28;;;;;;;11.02;3.03;;;11.20;99.90;;;;;;5412796;26;20003;-60
2024/04/19 06:55:54;;;;;;;7.13;3.33;;;11.20;99.90;;;;;;5412241;26;20003;-60
2024/04/19 06:58:20;;;;;;;6.28;3.67;;;11.40;99.90;;;;;;5388161;26;20004;-60
2024/04/19 07:00:45;;;;;;;6.15;3.10;;;11.50;99.90;;;;;;5376971;26;20077;-60
2024/04/19 07:03:11;;;;;;;6.80;2.80;;;11.60;99.90;;;;;;5375495;26;20001;-60
2024/04/19 07:05:36;;;;;;;5.57;2.72;;;11.70;99.90;;;;;;5377785;26;20409;-60
2024/04/19 07:08:03;;;;;;;7.13;2.70;;;11.90;99.90;;;;;;5377787;26;20001;-60
2024/04/19 07:10:28;;;;;;;7.00;3.72;;;11.80;99.90;;;;;;5376917;26;20000;-60
2024/04/19 07:12:54;;;;;;;13.85;4.55;;;11.80;99.90;;;;;;5377202;26;19996;-60
2024/04/19 07:15:19;;;;;;;8.70;4.20;;;11.80;99.90;;;;;;5375912;26;20353;-60
2024/04/19 07:17:48;;;;;;;6.22;4.20;;;11.70;99.90;;;;;;5377082;26;20015;-60
2024/04/19 07:20:13;;;;;;;12.98;4.63;;;11.60;99.90;;;;;;5377668;26;20016;-60
2024/04/19 07:22:39;;;;;;;6.93;4.45;;;11.50;99.90;;;;;;5375068;26;20434;-60
2024/04/19 07:25:05;;;;;;;9.85;5.22;;;11.60;99.90;;;;;;5376929;26;20016;-60
2024/04/19 07:27:30;;;;;;;7.18;4.95;;;11.60;99.90;;;;;;5377115;26;20448;-60
2024/04/19 07:29:56;;;;;;;12.02;5.07;;;11.60;99.90;;;;;;5378278;26;20000;-49
2024/04/19 07:32:22;;;;;;;10.73;4.90;;;11.50;99.90;;;;;;5383743;26;20000;-54
2024/04/19 07:34:47;;;;;;;12.07;4.97;;;11.60;99.90;;;;;;5404042;26;20031;-63
2024/04/19 07:37:13;;;;;;;14.27;4.47;;;11.60;99.90;;;;;;5387486;26;20011;-61
2024/04/19 07:39:39;;;;;;;10.82;5.15;;;11.40;99.90;;;;;;5406342;26;20008;-60
2024/04/19 07:42:04;;;;;;;11.93;4.65;;;11.50;99.90;;;;;;5404861;26;20000;-62
2024/04/19 07:44:30;;;;;;;8.63;4.63;;;11.50;99.90;;;;;;5400615;26;20064;-61
2024/04/19 07:46:56;;;;;;;10.98;5.80;;;11.50;99.90;;;;;;5403658;26;20011;-58
2024/04/19 07:49:21;;;;;;;13.05;4.53;;;11.60;99.90;;;;;;5408147;26;20442;-73
2024/04/19 07:51:47;;;;;;;9.45;4.55;;;11.60;99.90;;;;;;5377014;26;20000;-51
2024/04/19 07:54:13;;;;;;;13.90;4.70;;;11.70;99.90;;;;;;5406565;26;20003;-60
2024/04/19 07:56:41;;;;;;;11.13;4.95;;;11.70;99.90;;;;;;5387941;26;20037;-64
2024/04/19 07:59:07;;;;;;;7.97;4.43;;;11.70;99.90;;;;;;5406182;26;19996;-63
2024/04/19 08:01:34;;;;;;;9.50;4.53;;;11.90;99.90;;;;;;5405587;26;20466;-63
2024/04/19 08:03:59;;;;;;;6.35;4.35;;;11.90;99.90;;;;;;5410154;26;20011;-62
2024/04/19 08:06:25;;;;;;;16.63;5.05;;;11.90;99.90;;;;;;5410761;26;20018;-60
2024/04/19 08:08:51;;;;;;;11.15;4.40;;;12.00;99.90;;;;;;5402103;26;20010;-51
2024/04/19 08:11:17;;;;;;;8.82;4.30;;;12.10;99.90;;;;;;5405800;26;20000;-52
2024/04/19 08:13:42;;;;;;;8.02;3.78;;;12.10;99.90;;;;;;5407055;26;20130;-49
2024/04/19 08:16:08;;;;;;;5.13;3.53;;;12.00;99.90;;;;;;5393772;26;20012;-52
2024/04/19 08:18:34;;;;;;;13.38;4.82;;;12.20;99.90;;;;;;5414986;26;20010;-51
2024/04/19 08:21:00;;;;;;;7.57;3.97;;;12.20;99.90;;;;;;5414311;26;20444;-48
2024/04/19 08:23:26;;;;;;;6.32;3.72;;;12.30;99.90;;;;;;5397551;26;20007;-50
2024/04/19 08:25:54;;;;;;;8.23;4.35;;;12.40;99.90;;;;;;5413471;26;20007;-52
2024/04/19 08:28:25;;;;;;;8.13;3.70;;;12.40;99.90;;;;;;5399786;26;20000;-53
2024/04/19 08:30:51;;;;;;;8.98;3.47;;;12.50;99.90;;;;;;5410745;26;20019;-49
2024/04/19 08:33:17;;;;;;;5.13;3.67;;;12.60;99.90;;;;;;5415666;26;19999;-59
2024/04/19 08:35:42;;;;;;;4.45;2.20;;;12.60;99.90;;;;;;5411702;26;20005;-60
2024/04/19 08:38:08;;;;;;;5.38;2.47;;;12.60;99.90;;;;;;5415541;26;19996;-64
2024/04/19 08:40:39;;;;;;;7.45;2.80;;;12.70;99.90;;;;;;5417586;26;20003;-61
2024/04/19 08:43:04;;;;;;;3.67;2.28;;;12.80;99.90;;;;;;5413451;26;20120;-61
2024/04/19 08:45:30;;;;;;;8.27;3.08;;;12.90;99.90;;;;;;5413838;26;20433;-63
2024/04/19 08:47:58;;;;;;;4.35;1.88;;;12.90;99.90;;;;;;5408043;26;20023;-62
2024/04/19 08:50:26;;;;;;;4.32;2.53;;;13.00;99.90;;;;;;5403031;26;20003;-64
2024/04/19 08:52:52;;;;;;;4.97;2.67;;;13.00;99.90;;;;;;5382859;26;20105;-60
2024/04/19 08:55:19;;;;;;;8.50;2.78;;;13.10;99.90;;;;;;5388819;26;20007;-58
2024/04/19 08:57:45;;;;;;;6.88;2.70;;;13.10;99.90;;;;;;5409316;26;20003;-60
2024/04/19 09:00:11;;;;;;;5.57;2.95;;;13.10;99.90;;;;;;5402796;26;20018;-61
2024/04/19 09:02:36;;;;;;;4.85;2.58;;;13.10;99.90;;;;;;5400146;26;20303;-64
2024/04/19 09:05:03;;;;;;;6.82;3.58;;;13.10;99.90;;;;;;5426944;26;20013;-65
2024/04/19 09:07:29;;;;;;;5.03;3.03;;;13.20;99.90;;;;;;5453226;26;20018;-61
2024/04/19 09:09:56;;;;;;;6.88;3.30;;;13.20;99.90;;;;;;5397360;26;19996;-60
2024/04/19 09:12:22;;;;;;;6.50;2.75;;;13.30;99.90;;;;;;5414567;26;20035;-64
2024/04/19 09:14:51;;;;;;;7.30;3.25;;;13.40;99.90;;;;;;5407033;26;19996;-57
2024/04/19 09:17:17;;;;;;;4.82;3.15;;;13.40;99.90;;;;;;5398091;26;20035;-59
2024/04/19 09:19:43;;;;;;;6.70;3.20;;;13.50;99.90;;;;;;5385694;26;20000;-62
2024/04/19 09:22:09;;;;;;;7.85;3.30;;;13.50;99.90;;;;;;5404451;26;20015;-60
2024/04/19 09:24:35;;;;;;;3.63;2.60;;;13.50;99.90;;;;;;5414533;26;20353;-61
2024/04/19 09:27:04;;;;;;;5.22;3.08;;;13.60;99.90;;;;;;5432093;26;20438;-60
2024/04/19 09:29:30;;;;;;;5.38;2.40;;;13.70;99.90;;;;;;5385239;26;20012;-53
2024/04/19 09:31:59;;;;;;;4.30;2.67;;;13.70;99.90;;;;;;5413616;26;20198;-61
2024/04/19 09:34:25;;;;;;;6.55;2.90;;;13.70;99.90;;;;;;5392127;26;20004;-58
2024/04/19 09:36:51;;;;;;;3.50;2.47;;;13.80;99.90;;;;;;5421670;26;20016;-62
2024/04/19 09:39:17;;;;;;;4.97;3.10;;;13.90;99.90;;;;;;5424861;26;20019;-61
2024/04/19 09:41:47;;;;;;;2.58;2.13;;;13.90;99.90;;;;;;5412042;26;20009;-62
2024/04/19 09:44:15;;;;;;;2.80;1.95;;;13.90;99.90;;;;;;5410179;26;20085;-62
2024/04/19 09:46:48;;;;;;;4.43;1.42;;;14.00;99.90;;;;;;5391066;26;20148;-67
2024/04/19 09:49:18;;;;;;;2.22;1.80;;;14.00;99.90;;;;;;5382629;26;20000;-65
2024/04/19 09:51:47;;;;;;;2.55;1.35;;;14.00;99.90;;;;;;5421887;26;20046;-63
2024/04/19 09:54:14;;;;;;;3.03;1.77;;;14.20;99.90;;;;;;5414413;26;20011;-61
2024/04/19 09:56:45;;;;;;;2.95;1.65;;;14.30;99.90;;;;;;5410798;26;20338;-67
2024/04/19 09:59:13;;;;;;;1.60;1.23;;;14.40;99.90;;;;;;5399069;26;20000;-64
2024/04/19 10:01:38;;;;;;;4.30;1.40;;;14.40;99.90;;;;;;5395256;26;20416;-63
2024/04/19 10:04:09;;;;;;;2.70;1.52;;;14.60;99.90;;;;;;5394414;26;20008;-63
2024/04/19 10:06:38;;;;;;;1.60;1.38;;;14.60;99.90;;;;;;5392520;26;20004;-60
2024/04/19 10:09:08;;;;;;;1.70;1.52;;;14.60;99.90;;;;;;5391265;26;20535;-61
2024/04/19 10:11:38;;;;;;;3.42;1.60;;;14.60;99.90;;;;;;5416905;26;20000;-69
2024/04/19 10:14:08;;;;;;;1.92;1.52;;;14.80;99.90;;;;;;5416669;26;20032;-65
2024/04/19 10:16:40;;;;;;;3.53;1.50;;;14.90;99.90;;;;;;5416278;26;20011;-63
2024/04/19 10:19:07;;;;;;;5.28;1.77;;;15.00;99.90;;;;;;5414657;26;20011;-54
2024/04/19 10:21:33;;;;;;;1.35;1.25;;;15.10;99.90;;;;;;5416317;26;20076;-55
2024/04/19 10:24:09;;;;;;;1.75;1.65;;;15.20;99.90;;;;;;5415842;26;20010;-56
2024/04/19 10:26:35;;;;;;;9.68;2.20;;;15.20;99.90;;;;;;5415939;26;20011;-54
2024/04/19 10:29:01;;;;;;;3.67;1.75;;;15.20;99.90;;;;;;5416128;26;20012;-50
2024/04/19 10:31:28;;;;;;;6.95;1.92;;;15.30;99.90;;;;;;5415577;26;19999;-52
2024/04/19 10:33:54;;;;;;;4.40;1.75;;;15.30;99.90;;;;;;5414200;26;20000;-56
2024/04/19 10:36:19;;;;;;;1.20;1.00;;;15.30;99.90;;;;;;5416015;26;20391;-59
2024/04/19 10:38:46;;;;;;;1.30;0.70;;;15.50;99.90;;;;;;5414822;26;20007;-60
2024/04/19 10:41:16;;;;;;;1.73;0.60;;;15.50;99.90;;;;;;5412848;26;20011;-57
2024/04/19 10:43:43;;;;;;;0.80;0.65;;;;;;;;;;5415666;26;20015;-63
2024/04/19 10:46:27;;;;;;;1.40;0.68;;;;;;;;;;5416277;26;20007;-62
2024/04/19 10:48:54;;;;;;;1.48;0.80;;;;;;;;;;5406967;26;20007;-63
2024/04/19 10:51:20;;;;;;;2.92;1.30;;;;;;;;;;5415193;26;20007;-66
2024/04/19 10:53:46;;;;;;;0.68;0.68;;;;;;;;;;5412330;26;19999;-67
2024/04/19 10:56:12;;;;;;;3.42;0.98;;;;;;;;;;5378215;26;20342;-66
2024/04/19 10:58:41;;;;;;;1.77;0.82;;;;;;;;;;5380035;26;20020;-67
2024/04/19 11:01:09;;;;;;;4.18;1.15;;;;;;;;;;5379962;26;20081;-67
2024/04/19 11:03:35;;;;;;;1.23;1.10;;;;;;;;;;5379943;26;20036;-66
2024/04/19 11:06:01;;;;;;;1.52;0.90;;;;;;;;;;5380164;26;20007;-66
2024/04/19 11:08:27;;;;;;;1.08;0.70;;;;;;;;;;5379933;26;20052;-66
2024/04/19 11:10:53;;;;;;;1.95;0.70;;;;;;;;;;5379751;26;20005;-65
2024/04/19 11:13:20;;;;;;;0.88;0.73;;;;;;;;;;5379960;26;20012;-65
2024/04/19 11:15:46;;;;;;;2.45;0.90;;;;;;;;;;5377715;26;20334;-65
2024/04/19 11:18:11;;;;;;;1.10;0.65;;;15.60;99.90;;;;;;5379608;26;20033;-65
2024/04/19 11:20:37;;;;;;;0.93;0.88;;;16.80;99.90;;;;;;5379741;26;20012;-65
2024/04/19 11:23:03;;;;;;;1.10;1.00;;;16.90;99.90;;;;;;5385218;26;20011;-65
2024/04/19 11:25:29;;;;;;;1.05;0.95;;;16.80;99.90;;;;;;5379804;26;20449;-65
2024/04/19 11:27:55;;;;;;;1.20;1.10;;;16.90;99.90;;;;;;5379498;26;19992;-66
2024/04/19 11:30:22;;;;;;;2.00;1.40;;;;;;;;;;5377696;26;20326;-65
2024/04/19 11:32:52;;;;;;;0.68;0.65;;;;;;;;;;5382257;26;20003;-65
2024/04/19 11:35:18;;;;;;;0.75;0.60;;;;;;;;;;5395316;26;20000;-65
2024/04/19 11:37:48;;;;;;;0.95;0.75;;;;;;;;;;5418524;26;20153;-66
2024/04/19 11:40:20;;;;;;;1.75;0.50;;;;;;;;;;5418450;26;20034;-65
2024/04/19 11:42:47;;;;;;;1.08;0.40;;;;;;;;;;5401335;26;19997;-66
2024/04/19 11:45:13;;;;;;;0.80;0.70;;;;;;;;;;5382661;26;20000;-65
2024/04/19 11:47:39;;;;;;;1.85;0.38;;;;;;;;;;5382520;26;20003;-67
2024/04/19 11:50:05;;;;;;;1.02;0.50;;;;;;;;;;5382764;26;20295;-67
2024/04/19 11:52:31;;;;;;;0.70;0.60;;;;;;;;;;5382692;26;20044;-67
2024/04/19 11:54:57;;;;;;;2.35;0.68;;;;;;;;;;5382684;26;20115;-66
2024/04/19 11:57:23;;;;;;;2.47;0.63;;;;;;;;;;5382310;26;20421;-66
2024/04/19 11:59:49;;;;;;;0.63;0.38;;;;;;;;;;5382818;26;20008;-66
2024/04/19 12:02:15;;;;;;;1.27;0.60;;;;;;;;;;5380641;26;20089;-67
2024/04/19 12:04:42;;;;;;;;;;;;;;;;;;5383638;26;20033;-66
2024/04/19 12:07:08;;;;;;;1.98;0.70;;;;;;;;;;5382733;26;20355;-67
2024/04/19 12:09:34;;;;;;;6.93;0.70;;;;;;;;;;5382361;26;20046;-67
2024/04/19 12:12:03;;;;;;;2.22;0.70;;;;;;;;;;5380893;26;20295;-67
2024/04/19 12:14:34;;;;;;;1.15;0.85;;;;;;;;;;5382407;26;19996;-67
2024/04/19 12:17:00;;;;;;;0.63;0.52;;;;;;;;;;5382934;26;20430;-67
2024/04/19 12:19:26;;;;;;;0.90;0.90;;;;;;;;;;5382178;26;20388;-66
2024/04/19 12:21:52;;;;;;;1.05;0.88;;;;;;;;;;5414903;26;20003;-67
2024/04/19 12:24:18;;;;;;;2.83;0.93;;;;;;;;;;5417127;26;20336;-67
2024/04/19 12:26:44;;;;;;;2.50;1.20;;;;;;;;;;5417637;26;19996;-66
2024/04/19 12:29:10;;;;;;;2.42;1.50;;;;;;;;;;5417721;26;20084;-66
2024/04/19 12:31:36;;;;;;;1.90;1.58;;;;;;;;;;5417810;26;19999;-66
2024/04/19 12:34:02;;;;;;;10.07;1.70;;;;;;;;;;5417258;26;20003;-61
2024/04/19 12:36:28;;;;;;;0.95;0.82;;;;;;;;;;5417683;26;20088;-62
2024/04/19 12:38:54;;;;;;;1.38;0.95;;;;;;;;;;5417835;26;20325;-61
2024/04/19 12:41:20;;;;;;;0.60;0.60;;;;;;;;;;5398383;26;20011;-61
2024/04/19 12:43:47;;;;;;;0.77;0.68;;;;;;;;;;5382417;26;20016;-59
2024/04/19 12:46:13;;;;;;;1.38;0.80;;;;;;;;;;5417803;26;20009;-61
2024/04/19 12:48:41;;;;;;;1.23;1.15;;;;;;;;;;5411558;26;19996;-59
2024/04/19 12:51:07;;;;;;;1.25;1.10;;;;;;;;;;5415221;26;20000;-52
2024/04/19 12:53:33;;;;;;;1.88;0.90;;;;;;;;;;5414788;26;20071;-60
2024/04/19 12:55:59;;;;;;;0.95;0.95;;;;;;;;;;5414937;26;19999;-54
2024/04/19 12:58:25;;;;;;;0.90;0.90;;;17.00;99.90;;;;;;5415140;26;20002;-64
2024/04/19 13:00:51;;;;;;;0.90;0.90;;;24.60;99.90;;;;;;5406880;26;20016;-60
2024/04/19 13:03:16;;;;;;;2.25;0.90;;;25.10;99.90;;;;;;5379080;26;20028;-61
2024/04/19 13:05:42;;;;;;;2.10;1.02;;;25.90;99.90;;;;;;5379672;26;19997;-61
2024/04/19 13:08:08;;;;;;;0.90;0.90;;;27.20;99.90;;;;;;5379695;26;19996;-69